createdAt,value
2018-07-06T00:02:36.448Z,65.50
2018-07-06T00:05:16.053Z,65.40
2018-07-06T00:07:55.533Z,66.10
2018-07-06T00:10:35.277Z,66.30
2018-07-06T00:13:14.756Z,68.00
2018-07-06T00:15:54.564Z,67.00
2018-07-06T00:18:34.172Z,67.70
2018-07-06T00:21:13.865Z,67.20
2018-07-06T00:23:53.448Z,66.50
2018-07-06T00:26:33.054Z,67.40
2018-07-06T00:29:12.769Z,67.20
2018-07-06T00:31:52.361Z,67.00
2018-07-06T00:34:31.916Z,67.60
2018-07-06T00:37:11.413Z,68.70
2018-07-06T00:39:50.759Z,69.00
2018-07-06T00:42:30.309Z,68.60
2018-07-06T00:45:10.121Z,69.00
2018-07-06T00:47:49.824Z,69.00
2018-07-06T00:50:29.421Z,68.90
2018-07-06T00:53:09.353Z,69.10
2018-07-06T00:55:49.016Z,70.10
2018-07-06T00:58:28.615Z,69.60
2018-07-06T01:01:08.086Z,68.90
2018-07-06T01:03:47.747Z,69.30
2018-07-06T01:06:27.420Z,69.20
2018-07-06T01:09:06.903Z,70.10
2018-07-06T01:11:46.430Z,69.80
2018-07-06T01:14:26.372Z,71.00
2018-07-06T01:17:10.157Z,71.20
2018-07-06T01:19:49.821Z,72.20
2018-07-06T01:22:29.594Z,72.20
2018-07-06T01:25:09.268Z,72.30
2018-07-06T01:27:48.887Z,71.80
2018-07-06T01:30:32.589Z,71.60
2018-07-06T01:33:12.163Z,71.10
2018-07-06T01:40:58.408Z,73.10
2018-07-06T01:43:40.049Z,72.70
2018-07-06T01:46:19.800Z,73.30
2018-07-06T01:48:59.317Z,74.00
2018-07-06T01:51:38.835Z,73.20
2018-07-06T01:54:18.276Z,73.60
2018-07-06T01:56:58.580Z,73.70
2018-07-06T01:59:38.172Z,73.30
2018-07-06T02:02:17.772Z,74.00
2018-07-06T02:04:57.297Z,74.10
2018-07-06T02:07:37.200Z,73.70
2018-07-06T02:10:16.770Z,73.70
2018-07-06T02:12:56.312Z,74.50
2018-07-06T02:15:35.820Z,74.50
2018-07-06T02:18:15.448Z,74.90
2018-07-06T02:20:55.193Z,74.00
2018-07-06T02:23:34.759Z,73.30
2018-07-06T02:26:14.341Z,72.30
2018-07-06T02:28:54.873Z,73.30
2018-07-06T02:31:36.665Z,73.00
2018-07-06T02:34:16.233Z,73.50
2018-07-06T02:36:55.877Z,73.80
2018-07-06T02:39:35.760Z,73.80
2018-07-06T02:42:15.336Z,74.40
2018-07-06T02:44:54.952Z,75.40
2018-07-06T02:47:34.457Z,75.40
2018-07-06T02:50:14.085Z,74.40
2018-07-06T02:52:53.543Z,74.20
2018-07-06T02:55:33.183Z,75.00
2018-07-06T02:58:12.721Z,74.60
2018-07-06T03:00:52.249Z,73.30
2018-07-06T03:03:34.112Z,73.50
2018-07-06T03:06:13.657Z,74.40
2018-07-06T03:08:53.205Z,75.10
2018-07-06T03:11:32.788Z,75.90
2018-07-06T03:14:12.402Z,75.50
2018-07-06T03:16:52.016Z,74.90
2018-07-06T03:19:35.278Z,75.20
2018-07-06T03:22:15.128Z,76.70
2018-07-06T03:24:54.917Z,76.00
2018-07-06T03:27:34.420Z,75.10
2018-07-06T03:30:14.029Z,74.60
2018-07-06T03:32:54.373Z,74.30
2018-07-06T03:35:33.868Z,74.90
2018-07-06T03:38:13.410Z,75.10
2018-07-06T03:40:53.117Z,75.00
2018-07-06T03:43:32.793Z,74.60
2018-07-06T03:46:12.441Z,74.70
2018-07-06T03:48:51.952Z,74.50
2018-07-06T03:51:31.469Z,74.70
2018-07-06T03:54:11.106Z,74.40
2018-07-06T03:56:50.704Z,74.80
2018-07-06T03:59:30.399Z,76.10
2018-07-06T04:02:10.082Z,75.40
2018-07-06T04:04:49.692Z,74.70
2018-07-06T04:07:34.385Z,76.30
2018-07-06T04:10:14.301Z,76.00
2018-07-06T04:12:53.602Z,75.50
2018-07-06T04:15:33.244Z,75.70
2018-07-06T04:18:12.619Z,75.70
2018-07-06T04:20:53.272Z,76.20
2018-07-06T04:23:32.870Z,76.30
2018-07-06T04:26:12.568Z,76.40
2018-07-06T04:28:51.976Z,76.30
2018-07-06T04:31:31.705Z,75.80
2018-07-06T04:34:11.761Z,76.00
2018-07-06T04:36:51.705Z,76.00
2018-07-06T04:39:31.245Z,75.10
2018-07-06T04:42:11.720Z,75.50
2018-07-06T04:44:51.145Z,75.40
2018-07-06T04:47:30.630Z,76.10
2018-07-06T04:50:10.249Z,76.50
2018-07-06T04:52:51.233Z,76.00
2018-07-06T04:55:30.735Z,76.50
2018-07-06T04:58:10.403Z,77.70
2018-07-06T05:00:50.283Z,77.30
2018-07-06T05:03:29.780Z,76.30
2018-07-06T05:06:09.356Z,76.60
2018-07-06T05:08:48.884Z,77.00
2018-07-06T05:11:28.340Z,77.20
2018-07-06T05:14:07.990Z,77.50
2018-07-06T05:16:47.696Z,78.20
2018-07-06T05:19:27.188Z,77.70
2018-07-06T05:22:06.596Z,78.20
2018-07-06T05:24:47.180Z,79.50
2018-07-06T05:27:27.113Z,79.50
2018-07-06T05:30:06.564Z,79.50
2018-07-06T05:32:46.275Z,79.00
2018-07-06T05:35:25.979Z,80.60
2018-07-06T05:38:05.489Z,80.70
2018-07-06T05:40:44.947Z,80.00
2018-07-06T05:43:24.364Z,79.80
2018-07-06T05:46:03.885Z,80.90
2018-07-06T05:48:43.453Z,81.10
2018-07-06T05:51:23.196Z,80.40
2018-07-06T05:54:02.580Z,79.80
2018-07-06T05:56:42.297Z,77.80
2018-07-06T05:59:22.027Z,77.50
2018-07-06T06:02:01.788Z,79.70
2018-07-06T06:04:41.314Z,80.60
2018-07-06T06:07:22.037Z,79.80
2018-07-06T06:09:50.505Z,79.50
2018-07-06T06:12:20.492Z,79.70
2018-07-06T06:14:49.357Z,78.70
2018-07-06T06:17:17.731Z,80.50
2018-07-06T06:19:46.148Z,80.10
2018-07-06T06:22:14.637Z,80.30
2018-07-06T06:24:43.154Z,79.30
2018-07-06T06:27:11.598Z,79.20
2018-07-06T06:29:40.044Z,80.80
2018-07-06T06:32:09.455Z,81.50
2018-07-06T06:34:37.880Z,81.50
2018-07-06T06:37:06.588Z,80.30
2018-07-06T06:39:35.278Z,80.30
2018-07-06T06:42:03.840Z,79.30
2018-07-06T06:44:32.608Z,79.10
2018-07-06T06:47:01.358Z,78.60
2018-07-06T06:49:31.312Z,78.30
2018-07-06T06:52:00.537Z,78.40
2018-07-06T06:54:29.541Z,79.70
2018-07-06T06:56:58.044Z,80.00
2018-07-06T06:59:26.576Z,79.70
2018-07-06T07:01:55.028Z,80.00
2018-07-06T07:04:23.568Z,79.60
2018-07-06T07:06:52.248Z,80.00
2018-07-06T07:09:20.798Z,80.00
2018-07-06T07:11:49.236Z,79.50
2018-07-06T07:14:17.895Z,79.20
2018-07-06T07:16:46.440Z,79.00
2018-07-06T07:19:15.097Z,79.00
2018-07-06T07:21:43.808Z,79.50
2018-07-06T07:24:12.353Z,79.50
2018-07-06T07:26:40.898Z,80.00
2018-07-06T07:29:09.318Z,79.40
2018-07-06T07:31:37.956Z,79.70
2018-07-06T07:34:06.681Z,80.60
2018-07-06T07:39:04.608Z,80.20
2018-07-06T07:41:33.215Z,80.70
2018-07-06T07:44:01.743Z,81.00
2018-07-06T07:46:30.277Z,81.30
2018-07-06T07:48:58.733Z,81.00
2018-07-06T07:52:07.724Z,82.30
2018-07-06T07:57:12.496Z,81.40
2018-07-06T07:59:41.284Z,80.60
2018-07-06T08:02:10.181Z,80.50
2018-07-06T08:04:38.656Z,79.70
2018-07-06T08:07:07.114Z,80.70
2018-07-06T08:09:36.176Z,80.40
2018-07-06T08:12:06.764Z,81.10
2018-07-06T08:14:35.218Z,80.50
2018-07-06T08:17:03.724Z,80.60
2018-07-06T08:19:32.158Z,81.10
2018-07-06T08:22:00.612Z,81.70
2018-07-06T08:24:29.117Z,81.40
2018-07-06T08:26:59.692Z,80.90
2018-07-06T08:29:28.187Z,82.00
2018-07-06T08:31:56.749Z,82.50
2018-07-06T08:34:36.293Z,81.40
2018-07-06T08:37:45.171Z,81.00
2018-07-06T08:40:14.861Z,81.50
2018-07-06T08:42:44.732Z,82.20
2018-07-06T08:45:14.140Z,80.60
2018-07-06T08:47:43.240Z,80.10
2018-07-06T08:50:11.777Z,81.20
2018-07-06T08:55:09.447Z,81.70
2018-07-06T08:57:38.908Z,81.10
2018-07-06T09:00:08.705Z,81.20
2018-07-06T09:02:37.156Z,80.90
2018-07-06T09:05:06.458Z,81.40
2018-07-06T09:07:34.932Z,80.90
2018-07-06T09:10:03.676Z,79.90
2018-07-06T09:12:32.180Z,79.70
2018-07-06T09:15:01.441Z,79.90
2018-07-06T09:17:29.932Z,81.40
2018-07-06T09:19:59.435Z,81.20
2018-07-06T09:22:27.630Z,81.40
2018-07-06T09:24:58.261Z,81.60
2018-07-06T09:27:26.709Z,80.80
2018-07-06T09:29:55.314Z,80.00
2018-07-06T09:32:23.858Z,79.90
2018-07-06T09:34:52.396Z,79.80
2018-07-06T09:37:20.969Z,80.20
2018-07-06T09:39:50.190Z,79.60
2018-07-06T09:42:18.976Z,79.70
2018-07-06T09:44:47.434Z,79.10
2018-07-06T09:47:16.054Z,79.30
2018-07-06T09:49:44.574Z,78.30
2018-07-06T09:52:13.107Z,77.10
2018-07-06T09:54:41.613Z,77.20
2018-07-06T09:57:10.157Z,77.50
2018-07-06T09:59:38.560Z,77.10
2018-07-06T10:02:07.149Z,75.60
2018-07-06T10:04:35.807Z,75.30
2018-07-06T10:07:04.396Z,74.90
2018-07-06T10:09:32.861Z,74.90
2018-07-06T10:12:05.028Z,75.10
2018-07-06T10:14:33.456Z,73.60
2018-07-06T10:17:01.988Z,73.90
2018-07-06T10:19:30.579Z,73.10
2018-07-06T10:21:59.120Z,71.10
2018-07-06T10:24:27.568Z,71.20
2018-07-06T10:26:56.048Z,70.60
2018-07-06T10:29:33.085Z,68.90
2018-07-06T10:32:27.825Z,66.20
2018-07-06T10:34:57.073Z,67.10
2018-07-06T10:37:26.046Z,65.40
2018-07-06T10:39:54.716Z,64.50
2018-07-06T10:42:23.210Z,62.90
2018-07-06T10:44:51.780Z,60.90
2018-07-06T10:47:20.192Z,62.40
2018-07-06T10:49:48.894Z,61.00
2018-07-06T10:52:18.091Z,60.60
2018-07-06T10:54:47.061Z,60.00
2018-07-06T10:57:15.607Z,58.30
2018-07-06T10:59:44.143Z,56.90
2018-07-06T11:02:12.613Z,57.80
2018-07-06T11:04:41.044Z,57.80
2018-07-06T11:07:09.484Z,56.10
2018-07-06T11:09:37.964Z,54.90
2018-07-06T11:12:06.516Z,53.50
2018-07-06T11:14:34.940Z,55.50
2018-07-06T11:17:03.688Z,54.80
2018-07-06T11:19:32.069Z,53.70
2018-07-06T11:22:00.666Z,51.80
2018-07-06T11:24:29.288Z,51.30
2018-07-06T11:26:57.691Z,50.80
2018-07-06T11:29:26.137Z,50.00
2018-07-06T11:31:54.604Z,48.80
2018-07-06T11:34:23.053Z,50.60
2018-07-06T11:36:51.515Z,50.10
2018-07-06T11:39:19.936Z,49.90
2018-07-06T11:41:48.361Z,49.90
2018-07-06T11:44:16.644Z,47.40
2018-07-06T11:46:45.072Z,46.10
2018-07-06T11:49:13.465Z,47.20
2018-07-06T11:51:41.892Z,45.60
2018-07-06T11:54:10.331Z,45.90
2018-07-06T11:56:39.057Z,45.30
2018-07-06T11:59:07.513Z,45.20
2018-07-06T12:01:36.888Z,45.80
2018-07-06T12:04:05.460Z,43.70
2018-07-06T12:06:33.837Z,44.40
2018-07-06T12:09:02.810Z,44.60
2018-07-06T12:11:31.284Z,43.10
2018-07-06T12:14:00.814Z,43.30
2018-07-06T12:16:29.293Z,42.00
2018-07-06T12:18:57.772Z,41.60
2018-07-06T12:21:26.291Z,42.80
2018-07-06T12:23:54.717Z,42.00
2018-07-06T12:26:23.188Z,41.60
2018-07-06T12:28:51.770Z,41.50
2018-07-06T12:31:20.234Z,41.80
2018-07-06T12:33:48.641Z,41.30
2018-07-06T12:36:17.176Z,41.50
2018-07-06T12:38:45.994Z,42.10
2018-07-06T12:41:14.561Z,42.10
2018-07-06T12:43:42.950Z,40.10
2018-07-06T12:46:11.365Z,40.00
2018-07-06T12:48:39.792Z,39.80
2018-07-06T12:51:08.264Z,39.20
2018-07-06T12:53:36.704Z,38.50
2018-07-06T12:56:05.172Z,39.80
2018-07-06T12:58:33.723Z,38.40
2018-07-06T13:01:02.201Z,37.70
2018-07-06T13:03:30.620Z,38.10
2018-07-06T13:06:00.168Z,37.20
2018-07-06T13:08:28.608Z,39.80
2018-07-06T13:10:57.189Z,37.00
2018-07-06T13:13:25.788Z,38.20
2018-07-06T13:15:54.213Z,37.80
2018-07-06T13:18:22.651Z,38.10
2018-07-06T13:20:51.144Z,38.30
2018-07-06T13:23:19.736Z,37.20
2018-07-06T13:25:48.204Z,36.70
2018-07-06T13:28:16.640Z,36.70
2018-07-06T13:30:45.138Z,37.50
2018-07-06T13:33:13.652Z,38.10
2018-07-06T13:35:42.505Z,36.00
2018-07-06T13:38:10.976Z,36.90
2018-07-06T13:40:39.432Z,35.80
2018-07-06T13:43:07.909Z,35.50
2018-07-06T13:45:36.440Z,35.90
2018-07-06T13:48:04.944Z,37.80
2018-07-06T13:50:33.419Z,37.70
2018-07-06T13:53:01.868Z,36.10
2018-07-06T13:55:30.391Z,35.90
2018-07-06T13:57:58.864Z,36.90
2018-07-06T14:00:27.324Z,36.30
2018-07-06T14:02:55.720Z,35.80
2018-07-06T14:05:24.111Z,35.10
2018-07-06T14:07:52.664Z,36.60
2018-07-06T14:10:21.156Z,35.70
2018-07-06T14:12:49.678Z,35.60
2018-07-06T14:15:18.108Z,36.70
2018-07-06T14:17:46.569Z,37.70
2018-07-06T14:20:17.193Z,36.10
2018-07-06T14:22:45.616Z,37.10
2018-07-06T14:25:14.088Z,34.70
2018-07-06T14:27:42.760Z,35.70
2018-07-06T14:30:11.202Z,35.10
2018-07-06T14:32:39.588Z,35.30
2018-07-06T14:35:08.111Z,35.20
2018-07-06T14:37:36.480Z,35.50
2018-07-06T14:40:05.024Z,35.70
2018-07-06T14:42:33.440Z,36.40
2018-07-06T14:45:01.897Z,35.60
2018-07-06T14:47:31.348Z,34.10
2018-07-06T14:49:59.773Z,34.70
2018-07-06T14:52:28.253Z,35.50
2018-07-06T14:54:56.825Z,34.20
2018-07-06T14:57:25.317Z,35.50
2018-07-06T14:59:53.742Z,33.70
2018-07-06T15:02:22.432Z,33.70
2018-07-06T15:04:50.818Z,34.50
2018-07-06T15:07:19.196Z,34.80
2018-07-06T15:09:47.658Z,34.80
2018-07-06T15:12:16.184Z,34.60
2018-07-06T15:14:44.644Z,34.50
2018-07-06T15:17:13.132Z,34.50
2018-07-06T15:19:41.631Z,35.60
2018-07-06T15:22:10.083Z,33.80
2018-07-06T15:24:38.524Z,34.90
2018-07-06T15:27:08.104Z,33.40
2018-07-06T15:29:36.593Z,32.70
2018-07-06T15:32:05.128Z,31.40
2018-07-06T15:34:37.288Z,31.70
2018-07-06T15:37:06.040Z,31.70
2018-07-06T15:39:34.596Z,32.10
2018-07-06T15:42:03.108Z,31.30
2018-07-06T15:44:31.667Z,32.20
2018-07-06T15:47:00.152Z,32.60
2018-07-06T15:49:28.521Z,32.90
2018-07-06T15:51:56.979Z,32.70
2018-07-06T15:54:25.528Z,33.60
2018-07-06T15:56:53.953Z,33.00
2018-07-06T15:59:22.294Z,34.10
2018-07-06T16:04:18.455Z,35.20
2018-07-06T16:06:47.788Z,33.80
2018-07-06T16:11:43.936Z,33.90
2018-07-06T16:14:12.238Z,34.80
2018-07-06T16:16:40.638Z,34.90
2018-07-06T16:19:08.927Z,33.40
2018-07-06T16:21:37.380Z,35.10
2018-07-06T16:24:06.032Z,34.30
2018-07-06T16:26:34.355Z,34.00
2018-07-06T16:29:07.537Z,34.70
2018-07-06T16:31:35.882Z,35.90
2018-07-06T16:34:04.285Z,35.40
2018-07-06T16:36:32.781Z,35.00
2018-07-06T16:41:30.498Z,36.30
2018-07-06T16:44:01.119Z,35.50
2018-07-06T16:46:29.526Z,36.50
2018-07-06T16:48:58.029Z,35.00
2018-07-06T16:51:26.456Z,34.70
2018-07-06T16:53:55.034Z,35.50
2018-07-06T16:56:23.589Z,34.90
2018-07-06T16:58:52.144Z,35.60
2018-07-06T17:01:20.567Z,36.40
2018-07-06T17:03:48.984Z,36.40
2018-07-06T17:06:17.912Z,37.10
2018-07-06T17:08:46.389Z,36.80
2018-07-06T17:11:14.884Z,38.20
2018-07-06T17:13:43.392Z,36.60
2018-07-06T17:16:11.901Z,37.50
2018-07-06T17:18:40.383Z,38.00
2018-07-06T17:21:10.165Z,38.70
2018-07-06T17:23:38.718Z,38.30
2018-07-06T17:26:07.370Z,39.10
2018-07-06T17:28:37.221Z,40.10
2018-07-06T17:31:06.804Z,39.50
2018-07-06T17:33:35.258Z,39.70
2018-07-06T17:36:03.696Z,38.90
2018-07-06T17:38:33.187Z,38.40
2018-07-06T17:41:01.721Z,38.70
2018-07-06T17:43:30.207Z,37.90
2018-07-06T17:45:58.759Z,38.70
2018-07-06T17:48:27.329Z,39.20
2018-07-06T17:50:56.845Z,39.00
2018-07-06T17:53:25.397Z,39.70
2018-07-06T17:55:53.958Z,39.10
2018-07-06T17:58:22.378Z,39.40
2018-07-06T18:00:50.952Z,39.30
2018-07-06T18:05:47.429Z,38.70
2018-07-06T18:08:20.677Z,38.60
2018-07-06T18:10:49.150Z,38.50
2018-07-06T18:13:17.624Z,39.30
2018-07-06T18:15:46.051Z,38.30
2018-07-06T18:18:14.589Z,39.20
2018-07-06T18:20:42.960Z,40.10
2018-07-06T18:23:11.627Z,40.60
2018-07-06T18:25:47.984Z,40.30
2018-07-06T18:28:16.386Z,40.10
2018-07-06T18:30:45.006Z,40.50
2018-07-06T18:33:13.474Z,41.50
2018-07-06T18:35:41.953Z,41.60
2018-07-06T18:38:10.409Z,42.30
2018-07-06T18:40:38.885Z,43.40
2018-07-06T18:43:07.556Z,43.50
2018-07-06T18:45:37.032Z,44.00
2018-07-06T18:48:05.747Z,44.00
2018-07-06T18:50:35.193Z,43.70
2018-07-06T18:53:03.665Z,44.50
2018-07-06T18:55:33.566Z,45.30
2018-07-06T18:58:02.065Z,45.90
2018-07-06T19:00:30.610Z,45.40
2018-07-06T19:02:59.309Z,44.80
2018-07-06T19:05:27.721Z,46.00
2018-07-06T19:07:57.005Z,46.70
2018-07-06T19:10:25.580Z,47.00
2018-07-06T19:12:54.208Z,47.00
2018-07-06T19:15:22.608Z,48.00
2018-07-06T19:17:51.085Z,47.30
2018-07-06T19:20:19.495Z,48.40
2018-07-06T19:22:50.220Z,48.80
2018-07-06T19:25:18.701Z,48.80
2018-07-06T19:27:47.207Z,49.30
2018-07-06T19:30:15.686Z,49.70
2018-07-06T19:35:17.641Z,49.60
2018-07-06T19:37:46.135Z,49.80
2018-07-06T19:40:14.556Z,50.20
2018-07-06T19:42:42.954Z,50.30
2018-07-06T19:45:11.596Z,50.80
2018-07-06T19:47:40.054Z,50.80
2018-07-06T19:50:08.523Z,51.40
2018-07-06T19:52:37.017Z,51.90
2018-07-06T19:55:05.892Z,52.00
2018-07-06T19:57:34.423Z,52.20
2018-07-06T20:00:02.746Z,52.90
2018-07-06T20:02:31.245Z,53.20
2018-07-06T20:04:59.737Z,53.30
2018-07-06T20:09:58.249Z,53.10
2018-07-06T20:12:26.620Z,53.40
2018-07-06T20:14:54.993Z,54.40
2018-07-06T20:17:23.472Z,54.10
2018-07-06T20:19:51.915Z,54.00
2018-07-06T20:22:20.448Z,53.90
2018-07-06T20:24:48.953Z,53.90
2018-07-06T20:27:17.439Z,54.60
2018-07-06T20:29:49.137Z,54.60
2018-07-06T20:32:17.670Z,55.60
2018-07-06T20:34:46.148Z,55.50
2018-07-06T20:37:14.593Z,55.30
2018-07-06T20:39:43.009Z,55.30
2018-07-06T20:42:11.408Z,55.50
2018-07-06T20:44:39.972Z,55.20
2018-07-06T20:47:10.526Z,55.90
2018-07-06T20:49:39.083Z,56.10
2018-07-06T20:52:07.596Z,56.10
2018-07-06T20:54:36.061Z,56.90
2018-07-06T20:57:04.676Z,57.40
2018-07-06T21:02:04.564Z,56.90
2018-07-06T21:04:33.162Z,57.30
2018-07-06T21:07:02.019Z,57.00
2018-07-06T21:09:30.492Z,57.40
2018-07-06T21:11:59.043Z,57.90
2018-07-06T21:14:27.536Z,57.70
2018-07-06T21:16:55.983Z,58.00
2018-07-06T21:19:24.456Z,58.20
2018-07-06T21:21:52.877Z,58.00
2018-07-06T21:24:21.357Z,58.70
2018-07-06T21:26:49.833Z,59.20
2018-07-06T21:29:18.292Z,58.70
2018-07-06T21:31:46.718Z,58.30
2018-07-06T21:34:15.345Z,58.50
2018-07-06T21:36:43.897Z,58.30
2018-07-06T21:39:12.428Z,58.30
2018-07-06T21:41:40.793Z,58.20
2018-07-06T21:44:09.236Z,58.70
2018-07-06T21:46:37.664Z,58.30
2018-07-06T21:49:06.221Z,58.30
2018-07-06T21:51:34.797Z,58.40
2018-07-06T21:54:03.260Z,58.60
2018-07-06T21:56:38.883Z,58.60
2018-07-06T21:59:07.296Z,58.60
2018-07-06T22:01:35.756Z,58.40
2018-07-06T22:04:04.236Z,58.50
2018-07-06T22:06:36.856Z,58.30
2018-07-06T22:09:06.758Z,58.40
2018-07-06T22:11:35.237Z,58.70
2018-07-06T22:14:03.910Z,58.60
2018-07-06T22:16:32.555Z,58.60
2018-07-06T22:19:01.261Z,59.10
2018-07-06T22:21:29.709Z,59.10
2018-07-06T22:23:58.116Z,59.00
2018-07-06T22:26:26.813Z,59.10
2018-07-06T22:28:55.266Z,59.50
2018-07-06T22:31:23.954Z,59.70
2018-07-06T22:33:52.508Z,59.90
2018-07-06T22:36:21.080Z,60.60
2018-07-06T22:38:50.585Z,61.20
2018-07-06T22:41:19.016Z,60.50
2018-07-06T22:43:47.566Z,60.40
2018-07-06T22:46:16.114Z,61.00
2018-07-06T22:48:44.642Z,60.80
2018-07-06T22:51:14.568Z,60.60
2018-07-06T22:53:43.110Z,60.80
2018-07-06T22:56:11.533Z,60.70
2018-07-06T22:58:40.259Z,60.70
2018-07-06T23:01:08.941Z,60.70
2018-07-06T23:03:37.613Z,61.20
2018-07-06T23:06:05.912Z,61.10
2018-07-06T23:08:35.248Z,61.00
2018-07-06T23:11:03.615Z,62.10
2018-07-06T23:13:32.158Z,61.80
2018-07-06T23:16:00.686Z,61.60
2018-07-06T23:18:29.056Z,61.70
2018-07-06T23:20:58.001Z,61.40
2018-07-06T23:23:26.477Z,61.60
2018-07-06T23:25:55.037Z,61.80
2018-07-06T23:28:23.683Z,62.10
2018-07-06T23:30:52.113Z,63.10
2018-07-06T23:33:20.677Z,62.50
2018-07-06T23:35:49.225Z,62.60
2018-07-06T23:38:17.807Z,63.30
2018-07-06T23:40:46.806Z,63.40
2018-07-06T23:43:15.289Z,63.60
2018-07-06T23:45:43.760Z,63.20
2018-07-06T23:48:12.260Z,63.00
2018-07-06T23:50:52.840Z,63.60
2018-07-06T23:53:21.314Z,63.00
2018-07-06T23:55:49.844Z,62.80
2018-07-06T23:58:18.428Z,62.60
